Noel, MO (64854)

2:50 AM CDT on July 27, 2016 (GMT -0500)
Wet Prairie | | Change Station

Elev 1199 ft 36.48 °N, 94.60 °W | Updated 52 seconds ago

Clear
Clear
71.3 °F
Feels Like 71.3 °F
N
0.0
Wind Variable Wind from North
Gusts 0.0 mph

Today
High -- | Low -- °F
--% Chance of Precip.
Yesterday
High -- | Low -- °F
Precip. -- in
Pressure 29.96 in
Visibility 3.0 miles
Clouds Clear
Dew Point 69 °F
Humidity 92%
Rainfall 0.00 in
Snow Depth Not available.
6:20 AM 8:27 PM
Last Quarter, 46% visible
METAR KGMJ 270735Z AUTO 00000KT 3SM BR CLR 21/21 A2996 RMK AO2
Pressure 29.96 in
Visibility 3.0 miles
Clouds Clear
Dew Point 69 °F
Humidity 92%
Rainfall 0.00 in
Snow Depth Not available.
6:20 AM 8:27 PM
Last Quarter, 46% visible
METAR KGMJ 270735Z AUTO 00000KT 3SM BR CLR 21/21 A2996 RMK AO2

10-Day Weather Forecast

Almanac

Astronomy

Jul. 27, 2016 Rise Set
Actual Time
Civil Twilight
Nautical Twilight
Astronomical Twilight
Moon
Length of Visible Light
Length of Day
Tomorrow will be .
, % of the Moon is Illuminated

Today's Extremes

State Highs State Lows

Community

WunderPhotos

Upload Photos

1,927,818 photos uploaded!

WunderBlog® & News

Nearby

Air Quality

  Air Quality AQ Index Pollutant
Not available.

Snow Depth

Station Depth Elevation

Earthquake Activity

City Distance Mag. Time & Date
Minimum magnitude displayed is 2.5.

Coastal Water Temperatures

Place Temperature

Stations

Nearby Weather Stations

Station Location Temp. Windchill Dew Point Humidity Wind Precip. Elev Updated Type
                   

Watches & Warnings

There are currently no watches in effect.